Harmon, IL (61042)

10:44 AM CDT on August 31, 2015 (GMT -0500)
KILHARMO2 | | Change Station
CLOSE
Current Station
Personal Weather Station
Location: Harmon, IL
Elevation: 664 ft
Nearby Weather Stations

Elev 664 ft 41.75 °N, 89.58 °W | Updated 4 minutes ago

Clear
Clear
78.4 °F
Feels Like 81 °F
N
2.0
Wind Variable Wind from SSW
Gusts 5.0 mph

Today
High -- | Low -- °F
--% Chance of Precip.
Yesterday
High -- | Low -- °F
Precip. -- in
6:22 AM 7:33 PM
Waning Gibbous, 95% visible
Pressure 30.09 in
Visibility 7.0 miles
Clouds Clear
Heat Index 81 °F
Dew Point 73 °F
Humidity 84%
Rainfall 0.00 in
Snow Depth Not available.
UV 5 out of 12
Pollen 10.70 out of 12
Air Quality Not available.
Flu Activity Not available.
METAR KRPJ 311515Z AUTO 00000KT 7SM CLR 24/21 A3009 RMK AO2 T02380210
Pressure 30.09 in
Visibility 7.0 miles
Clouds Clear
Heat Index 81 °F
Dew Point 73 °F
Humidity 84%
Rainfall 0.00 in
Snow Depth Not available.
UV 5 out of 12
Pollen 10.70 out of 12
Air Quality Not available.
Flu Activity Not available.
METAR KRPJ 311515Z AUTO 00000KT 7SM CLR 24/21 A3009 RMK AO2 T02380210

10-Day Weather Forecast

×

Almanac

Astronomy

Aug. 31, 2015 Rise Set
Actual Time
Civil Twilight
Nautical Twilight
Astronomical Twilight
Moon
Length of Visible Light
Length of Day
Tomorrow will be .
, % of the Moon is Illuminated

Today's Extremes

State Highs State Lows

Community

WunderPhotos

Upload Photos

1,851,282 photos uploaded!

WunderBlogs® & News

Nearby

Air Quality

  Air Quality AQ Index Pollutant
Not available.

Snow Depth

Station Depth Elevation

Earthquake Activity

City Distance Mag. Time & Date
Minimum magnitude displayed is 2.5.

Coastal Water Temperatures

Place Temperature

Stations

Nearby Weather Stations

Station Location Temp. Windchill Dew Point Humidity Wind Precip. Elev Updated Type